FMEEFMEP

Guest
Details From FMEE - St Denis Gillot
To FMEP - St Pierre Pierrefonds
Flight Number -
Tags Generated
Created
Modified
Stats Distance 26 nm / 49 km
Max Altitude 0 ft / 0 m
Waypoints 2
Social Downloads 1
Likes 0
Share VATSIM

Download

Looking for another format? Having issues loading an existing format? Contact us
Advertisement - Login to hide

Notes

Generated

Route

FMEE FMEP

ID Type Via Altitude Latitude Longitude Leg Dist Tot Dist Heading (true) Name
O FMEE APT - 0 ft / 0 m -20.88418˚ 55.50412˚ - 0 nm - -
O FMEP APT - 0 ft / 0 m -21.31476˚ 55.41658˚ 26 nm 26 nm 191° / 191° -

Altitude Profile

Advertisement - Login to hide

FMEE

Details ICAO FMEE (RUN)
Name St Denis Gillot
Region Comoros, Mayotte, Réunion and Madagascar
Timezone Indian/Reunion (UTC+4.0)
Stats Elevation 66 ft / 20 m (AMSL)
Location -20.889313° 55.517752°
Runways 2
Magnetic Variation 18.981° W

METAR

FMEE 121800Z AUTO 11008KT CAVOK 27/20 Q1017 NOSIG

Decode

TAF

TAF FMEE 121700Z 1218/1324 14008KT 9999 FEW030 SCT080 TEMPO 1301/1306 4000 SHRA FEW020TCU BECMG 1304/1305 08010KT BECMG 1314/1316 12010KT

Decode

Departure Runways

ID Width Length Bearing (true) Bearing (mag) Surface Threshold Offset Overrun Length
12 148 ft / 45 m 10,581 ft / 3,225 m 102.26° 121.24° Asphalt 397 ft / 121 m 148 ft / 45 m
14 148 ft / 45 m 8,842 ft / 2,695 m 116.55° 135.53° Asphalt 338 ft / 103 m 98 ft / 30 m
30 148 ft / 45 m 10,581 ft / 3,225 m 282.25° 301.23° Asphalt 0 ft / 0 m 0 ft / 0 m
32 148 ft / 45 m 8,842 ft / 2,695 m 296.54° 315.52° Asphalt 1,175 ft / 358 m 377 ft / 115 m

FMEP

Details ICAO FMEP (ZSE)
Name ST PIERRE PIERREFONDS
Region Comoros, Mayotte, Réunion and Madagascar
Timezone Unknown (UTC+0.0)
Stats Elevation 56 ft / 17 m (AMSL)
Location -21.320039° 55.423581°
Runways 1
Magnetic Variation 19.532° W

METAR

FMEP 121800Z AUTO VRB02KT CAVOK 26/21 Q1017

Decode

TAF

Not found

Destination Runways

ID Width Length Bearing (true) Bearing (mag) Surface Threshold Offset Overrun Length
15 98 ft / 30 m 6,125 ft / 1,867 m 129.02° 148.55° Asphalt 0 ft / 0 m 0 ft / 0 m
33 98 ft / 30 m 6,125 ft / 1,867 m 309.01° 328.54° Asphalt 0 ft / 0 m 0 ft / 0 m

Popular Alternatives